createdAt,value
2017-01-28T00:00:47.150Z,0
2017-01-28T00:01:58.973Z,0
2017-01-28T00:03:08.390Z,0
2017-01-28T00:04:17.594Z,0
2017-01-28T00:05:26.741Z,0
2017-01-28T00:06:37.629Z,0
2017-01-28T00:07:46.741Z,0
2017-01-28T00:08:56.210Z,0
2017-01-28T00:10:05.798Z,0
2017-01-28T00:11:16.684Z,0
2017-01-28T00:12:27.190Z,0
2017-01-28T00:13:37.679Z,0
2017-01-28T00:14:49.220Z,0
2017-01-28T00:15:58.397Z,0
2017-01-28T00:17:07.901Z,0
2017-01-28T00:18:17.018Z,0
2017-01-28T00:19:26.519Z,0
2017-01-28T00:20:38.742Z,0
2017-01-28T00:21:47.913Z,0
2017-01-28T00:22:57.083Z,0
2017-01-28T00:24:06.621Z,0
2017-01-28T00:25:15.716Z,0
2017-01-28T00:26:25.120Z,0
2017-01-28T00:27:34.607Z,0
2017-01-28T00:28:45.480Z,0
2017-01-28T00:29:54.980Z,0
2017-01-28T00:31:05.479Z,0
2017-01-28T00:32:16.040Z,0
2017-01-28T00:33:25.111Z,0
2017-01-28T00:34:34.212Z,0
2017-01-28T00:35:43.351Z,0
2017-01-28T00:36:52.893Z,0
2017-01-28T00:38:02.432Z,0
2017-01-28T00:39:14.363Z,0
2017-01-28T00:40:25.384Z,0
2017-01-28T00:41:34.517Z,0
2017-01-28T00:42:44.043Z,0
2017-01-28T00:43:54.872Z,0
2017-01-28T00:45:04.806Z,0
2017-01-28T00:46:14.008Z,0
2017-01-28T00:47:24.989Z,0
2017-01-28T00:48:35.661Z,0
2017-01-28T00:49:46.430Z,0
2017-01-28T00:50:57.354Z,0
2017-01-28T00:52:06.578Z,0
2017-01-28T00:53:17.471Z,0
2017-01-28T00:54:28.058Z,0
2017-01-28T00:55:37.468Z,0
2017-01-28T00:56:48.385Z,0
2017-01-28T00:58:01.634Z,0
2017-01-28T00:59:11.172Z,0
2017-01-28T01:00:21.153Z,0
2017-01-28T01:01:32.047Z,0
2017-01-28T01:02:41.162Z,0
2017-01-28T01:03:52.065Z,0
2017-01-28T01:05:02.988Z,0
2017-01-28T01:06:14.844Z,0
2017-01-28T01:07:24.612Z,0
2017-01-28T01:08:34.181Z,0
2017-01-28T01:09:45.182Z,0
2017-01-28T01:10:56.154Z,0
2017-01-28T01:12:08.082Z,0
2017-01-28T01:13:17.515Z,0
2017-01-28T01:14:27.055Z,0
2017-01-28T01:15:36.168Z,0
2017-01-28T01:16:45.283Z,0
2017-01-28T01:17:55.819Z,0
2017-01-28T01:19:06.753Z,0
2017-01-28T01:20:20.130Z,0
2017-01-28T01:21:31.021Z,0
2017-01-28T01:22:42.898Z,0
2017-01-28T01:23:52.392Z,0
2017-01-28T01:25:01.714Z,0
2017-01-28T01:26:12.600Z,0
2017-01-28T01:27:22.104Z,0
2017-01-28T01:28:32.568Z,0
2017-01-28T01:29:41.688Z,0
2017-01-28T01:30:52.494Z,0
2017-01-28T01:32:03.002Z,0
2017-01-28T01:33:13.496Z,0
2017-01-28T01:34:22.623Z,0
2017-01-28T01:35:33.138Z,0
2017-01-28T01:36:44.239Z,0
2017-01-28T01:37:54.762Z,0
2017-01-28T01:39:03.864Z,0
2017-01-28T01:40:12.946Z,0
2017-01-28T01:41:22.009Z,0
2017-01-28T01:42:32.677Z,0
2017-01-28T01:43:41.773Z,0
2017-01-28T01:44:52.258Z,0
2017-01-28T01:46:02.772Z,0
2017-01-28T01:47:13.310Z,0
2017-01-28T01:48:24.477Z,0
2017-01-28T01:49:36.354Z,0
2017-01-28T01:50:45.482Z,0
2017-01-28T01:51:54.582Z,0
2017-01-28T01:53:06.445Z,0
2017-01-28T01:54:17.165Z,0
2017-01-28T01:55:26.265Z,0
2017-01-28T01:56:36.715Z,0
2017-01-28T01:57:47.614Z,0
2017-01-28T01:58:59.961Z,0
2017-01-28T02:00:12.685Z,0
2017-01-28T02:01:23.562Z,0
2017-01-28T02:02:32.685Z,0
2017-01-28T02:03:43.158Z,0
2017-01-28T02:04:52.251Z,0
2017-01-28T02:06:02.985Z,0
2017-01-28T02:07:12.039Z,0
2017-01-28T02:08:21.131Z,0
2017-01-28T02:09:30.194Z,0
2017-01-28T02:10:39.299Z,0
2017-01-28T02:11:49.084Z,0
2017-01-28T02:12:59.997Z,0
2017-01-28T02:14:09.499Z,0
2017-01-28T02:15:19.011Z,0
2017-01-28T02:16:30.868Z,0
2017-01-28T02:17:41.626Z,0
2017-01-28T02:18:52.553Z,0
2017-01-28T02:20:01.662Z,0
2017-01-28T02:21:13.936Z,0
2017-01-28T02:22:23.063Z,0
2017-01-28T02:23:32.369Z,0
2017-01-28T02:24:43.292Z,0
2017-01-28T02:25:53.233Z,0
2017-01-28T02:27:03.717Z,0
2017-01-28T02:28:14.214Z,0
2017-01-28T02:29:23.577Z,0
2017-01-28T02:30:33.878Z,0
2017-01-28T02:31:42.959Z,0
2017-01-28T02:32:52.490Z,0
2017-01-28T02:34:01.708Z,0
2017-01-28T02:35:12.416Z,0
2017-01-28T02:36:21.502Z,0
2017-01-28T02:37:30.613Z,0
2017-01-28T02:38:41.498Z,0
2017-01-28T02:39:51.391Z,0
2017-01-28T02:41:03.932Z,0
2017-01-28T02:42:12.999Z,0
2017-01-28T02:43:22.051Z,0
2017-01-28T02:44:31.149Z,0
2017-01-28T02:45:40.240Z,0
2017-01-28T02:46:49.554Z,0
2017-01-28T02:47:58.603Z,0
2017-01-28T02:49:09.493Z,0
2017-01-28T02:50:21.930Z,0
2017-01-28T02:51:32.429Z,0
2017-01-28T02:52:43.186Z,0
2017-01-28T02:53:53.581Z,0
2017-01-28T02:55:04.418Z,0
2017-01-28T02:56:13.505Z,0
2017-01-28T02:57:24.364Z,0
2017-01-28T02:58:33.670Z,0
2017-01-28T02:59:42.763Z,0
2017-01-28T03:00:51.830Z,0
2017-01-28T03:02:02.333Z,0
2017-01-28T03:03:12.796Z,0
2017-01-28T03:04:23.554Z,0
2017-01-28T03:05:33.044Z,0
2017-01-28T03:06:42.144Z,0
2017-01-28T03:07:51.652Z,0
2017-01-28T03:09:03.019Z,0
2017-01-28T03:10:13.855Z,0
2017-01-28T03:11:23.794Z,0
2017-01-28T03:12:33.682Z,0
2017-01-28T03:13:43.148Z,0
2017-01-28T03:14:52.292Z,0
2017-01-28T03:16:01.652Z,0
2017-01-28T03:17:11.161Z,0
2017-01-28T03:18:21.588Z,0
2017-01-28T03:19:33.525Z,0
2017-01-28T03:20:45.795Z,0
2017-01-28T03:21:55.118Z,0
2017-01-28T03:23:04.638Z,0
2017-01-28T03:24:13.783Z,0
2017-01-28T03:25:22.891Z,0
2017-01-28T03:26:32.133Z,0
2017-01-28T03:27:42.853Z,0
2017-01-28T03:28:53.350Z,0
2017-01-28T03:30:02.853Z,0
2017-01-28T03:31:11.934Z,0
2017-01-28T03:32:21.044Z,0
2017-01-28T03:33:31.786Z,0
2017-01-28T03:34:40.950Z,0
2017-01-28T03:35:51.362Z,0
2017-01-28T03:37:00.419Z,0
2017-01-28T03:38:10.870Z,0
2017-01-28T03:39:20.583Z,0
2017-01-28T03:40:31.538Z,0
2017-01-28T03:41:40.702Z,0
2017-01-28T03:42:51.150Z,0
2017-01-28T03:44:00.738Z,0
2017-01-28T03:45:11.494Z,0
2017-01-28T03:46:20.581Z,0
2017-01-28T03:47:32.421Z,0
2017-01-28T03:48:41.897Z,0
2017-01-28T03:49:52.342Z,0
2017-01-28T03:51:01.656Z,0
2017-01-28T03:52:12.088Z,0
2017-01-28T03:53:21.583Z,0
2017-01-28T03:54:30.675Z,0
2017-01-28T03:55:40.136Z,0
2017-01-28T03:56:50.871Z,0
2017-01-28T03:57:59.961Z,0
2017-01-28T03:59:09.943Z,0
2017-01-28T04:00:19.428Z,0
2017-01-28T04:01:29.897Z,0
2017-01-28T04:02:40.990Z,0
2017-01-28T04:03:51.435Z,0
2017-01-28T04:05:00.975Z,0
2017-01-28T04:06:11.480Z,0
2017-01-28T04:07:21.453Z,0
2017-01-28T04:08:31.602Z,0
2017-01-28T04:09:42.046Z,0
2017-01-28T04:10:53.868Z,0
2017-01-28T04:12:04.790Z,0
2017-01-28T04:13:14.277Z,0
2017-01-28T04:14:24.001Z,0
2017-01-28T04:15:35.824Z,0
2017-01-28T04:16:44.921Z,0
2017-01-28T04:17:54.003Z,0
2017-01-28T04:19:04.895Z,0
2017-01-28T04:20:14.261Z,0
2017-01-28T04:21:23.368Z,0
2017-01-28T04:22:32.895Z,0
2017-01-28T04:23:44.858Z,0
2017-01-28T04:24:57.151Z,0
2017-01-28T04:26:09.711Z,0
2017-01-28T04:27:18.780Z,0
2017-01-28T04:28:29.270Z,0
2017-01-28T04:29:38.810Z,0
2017-01-28T04:30:49.252Z,0
2017-01-28T04:32:00.386Z,0
2017-01-28T04:33:11.247Z,0
2017-01-28T04:34:24.841Z,0
2017-01-28T04:35:33.948Z,0
2017-01-28T04:36:43.469Z,0
2017-01-28T04:37:52.841Z,0
2017-01-28T04:39:03.306Z,0
2017-01-28T04:40:12.361Z,0
2017-01-28T04:41:21.441Z,0
2017-01-28T04:42:30.900Z,0
2017-01-28T04:43:40.609Z,0
2017-01-28T04:44:52.407Z,0
2017-01-28T04:46:01.520Z,0
2017-01-28T04:47:11.995Z,0
2017-01-28T04:48:22.305Z,0
2017-01-28T04:49:33.008Z,0
2017-01-28T04:50:43.516Z,0
2017-01-28T04:51:53.989Z,0
2017-01-28T04:53:03.078Z,0
2017-01-28T04:54:12.602Z,0
2017-01-28T04:55:22.019Z,0
2017-01-28T04:56:31.155Z,0
2017-01-28T04:57:40.242Z,0
2017-01-28T04:58:49.379Z,0
2017-01-28T04:59:58.466Z,0
2017-01-28T05:01:07.788Z,0
2017-01-28T05:02:16.892Z,0
2017-01-28T05:03:27.337Z,0
2017-01-28T05:04:37.915Z,0
2017-01-28T05:05:48.798Z,0
2017-01-28T05:06:58.157Z,0
2017-01-28T05:08:07.293Z,0
2017-01-28T05:09:19.152Z,0
2017-01-28T05:10:30.000Z,0
2017-01-28T05:11:40.475Z,0
2017-01-28T05:12:51.240Z,0
2017-01-28T05:14:01.710Z,0
2017-01-28T05:15:11.291Z,0
2017-01-28T05:16:20.421Z,0
2017-01-28T05:17:32.244Z,0
2017-01-28T05:18:43.425Z,0
2017-01-28T05:19:54.293Z,0
2017-01-28T05:21:03.352Z,0
2017-01-28T05:22:13.849Z,0
2017-01-28T05:23:22.956Z,0
2017-01-28T05:24:33.680Z,0
2017-01-28T05:25:42.765Z,0
2017-01-28T05:26:52.510Z,0
2017-01-28T05:28:03.440Z,0
2017-01-28T05:29:12.883Z,0
2017-01-28T05:30:23.136Z,0
2017-01-28T05:31:32.230Z,0
2017-01-28T05:32:41.354Z,0
2017-01-28T05:33:51.785Z,0
2017-01-28T05:35:00.965Z,0
2017-01-28T05:36:10.313Z,0
2017-01-28T05:37:19.526Z,0
2017-01-28T05:38:31.416Z,0
2017-01-28T05:39:41.897Z,0
2017-01-28T05:40:52.807Z,0
2017-01-28T05:42:02.194Z,0
2017-01-28T05:43:11.307Z,0
2017-01-28T05:44:20.394Z,0
2017-01-28T05:45:29.860Z,0
2017-01-28T05:46:40.310Z,0
2017-01-28T05:47:51.034Z,0
2017-01-28T05:49:00.611Z,0
2017-01-28T05:50:12.648Z,0
2017-01-28T05:51:23.510Z,0
2017-01-28T05:52:32.645Z,0
2017-01-28T05:53:41.967Z,0
2017-01-28T05:54:52.414Z,0
2017-01-28T05:56:02.867Z,0
2017-01-28T05:57:14.689Z,0
2017-01-28T05:58:24.201Z,0
2017-01-28T05:59:35.353Z,0
2017-01-28T06:00:44.427Z,0
2017-01-28T06:01:54.860Z,0
2017-01-28T06:03:05.286Z,0
2017-01-28T06:04:14.481Z,0
2017-01-28T06:05:24.627Z,0
2017-01-28T06:06:34.516Z,0
2017-01-28T06:07:45.495Z,0
2017-01-28T06:08:57.426Z,0
2017-01-28T06:10:07.362Z,0
2017-01-28T06:11:16.703Z,0
2017-01-28T06:12:28.015Z,0
2017-01-28T06:13:37.901Z,0
2017-01-28T06:14:46.998Z,0
2017-01-28T06:15:58.842Z,0
2017-01-28T06:17:08.146Z,0
2017-01-28T06:18:18.570Z,0
2017-01-28T06:19:27.616Z,0
2017-01-28T06:20:37.116Z,0
2017-01-28T06:21:46.182Z,0
2017-01-28T06:22:56.909Z,0
2017-01-28T06:24:06.383Z,0
2017-01-28T06:25:16.829Z,0
2017-01-28T06:26:27.274Z,0
2017-01-28T06:27:36.343Z,0
2017-01-28T06:28:47.484Z,0
2017-01-28T06:29:57.990Z,0
2017-01-28T06:31:07.040Z,0
2017-01-28T06:32:19.264Z,0
2017-01-28T06:33:28.393Z,0
2017-01-28T06:34:37.712Z,0
2017-01-28T06:35:46.775Z,0
2017-01-28T06:36:57.203Z,0
2017-01-28T06:38:06.263Z,0
2017-01-28T06:39:15.749Z,0
2017-01-28T06:40:25.148Z,0
2017-01-28T06:41:34.592Z,0
2017-01-28T06:42:43.679Z,0
2017-01-28T06:43:54.099Z,0
2017-01-28T06:45:03.165Z,5
2017-01-28T06:46:12.464Z,5
2017-01-28T06:47:21.942Z,5
2017-01-28T06:48:30.994Z,5
2017-01-28T06:49:41.833Z,5
2017-01-28T06:50:51.329Z,10
2017-01-28T06:52:01.430Z,10
2017-01-28T06:53:12.250Z,10
2017-01-28T06:54:22.796Z,10
2017-01-28T06:55:32.294Z,15
2017-01-28T06:56:41.383Z,15
2017-01-28T06:57:50.716Z,15
2017-01-28T06:58:59.793Z,20
2017-01-28T07:00:09.289Z,20
2017-01-28T07:01:19.740Z,20
2017-01-28T07:02:30.175Z,25
2017-01-28T07:03:39.505Z,25
2017-01-28T07:04:48.543Z,30
2017-01-28T07:05:58.023Z,30
2017-01-28T07:07:07.511Z,35
2017-01-28T07:08:16.591Z,35
2017-01-28T07:09:27.721Z,40
2017-01-28T07:10:37.215Z,40
2017-01-28T07:11:47.667Z,45
2017-01-28T07:12:56.755Z,50
2017-01-28T07:14:05.869Z,50
2017-01-28T07:15:15.184Z,55
2017-01-28T07:16:25.657Z,60
2017-01-28T07:17:36.102Z,60
2017-01-28T07:18:45.581Z,65
2017-01-28T07:19:54.633Z,70
2017-01-28T07:21:03.987Z,70
2017-01-28T07:22:13.043Z,70
2017-01-28T07:23:22.649Z,75
2017-01-28T07:24:31.711Z,80
2017-01-28T07:25:41.257Z,80
2017-01-28T07:26:50.607Z,85
2017-01-28T07:27:59.686Z,90
2017-01-28T07:29:08.737Z,95
2017-01-28T07:30:18.248Z,100
2017-01-28T07:31:27.350Z,100
2017-01-28T07:32:36.664Z,105
2017-01-28T07:33:47.098Z,110
2017-01-28T07:34:56.545Z,115
2017-01-28T07:36:05.616Z,120
2017-01-28T07:37:15.158Z,125
2017-01-28T07:38:25.391Z,130
2017-01-28T07:39:34.538Z,135
2017-01-28T07:40:43.609Z,135
2017-01-28T07:41:53.066Z,135
2017-01-28T07:43:03.539Z,145
2017-01-28T07:44:12.930Z,150
2017-01-28T07:45:22.035Z,155
2017-01-28T07:46:31.083Z,160
2017-01-28T07:47:40.704Z,165
2017-01-28T07:48:49.813Z,170
2017-01-28T07:50:00.537Z,175
2017-01-28T07:51:09.598Z,180
2017-01-28T07:52:18.672Z,180
2017-01-28T07:53:28.204Z,190
2017-01-28T07:54:38.726Z,195
2017-01-28T07:55:50.799Z,200
2017-01-28T07:56:59.871Z,210
2017-01-28T07:58:08.930Z,215
2017-01-28T07:59:18.383Z,220
2017-01-28T08:00:27.484Z,230
2017-01-28T08:01:36.860Z,240
2017-01-28T08:02:46.014Z,250
2017-01-28T08:03:57.255Z,265
2017-01-28T08:05:07.536Z,285
2017-01-28T08:06:18.363Z,310
2017-01-28T08:07:30.836Z,330
2017-01-28T08:08:43.048Z,350
2017-01-28T08:09:55.263Z,365
2017-01-28T08:11:06.115Z,380
2017-01-28T08:12:18.269Z,390
2017-01-28T08:13:29.795Z,390
2017-01-28T08:14:42.038Z,400
2017-01-28T08:15:54.210Z,400
2017-01-28T08:17:05.846Z,410
2017-01-28T08:18:18.032Z,395
2017-01-28T08:19:31.341Z,425
2017-01-28T08:20:42.567Z,460
2017-01-28T08:21:53.783Z,480
2017-01-28T08:23:04.992Z,490
2017-01-28T08:24:15.806Z,500
2017-01-28T08:25:28.757Z,510
2017-01-28T08:26:40.994Z,520
2017-01-28T08:27:51.830Z,525
2017-01-28T08:29:01.755Z,520
2017-01-28T08:30:12.615Z,545
2017-01-28T08:31:23.949Z,570
2017-01-28T08:32:34.785Z,575
2017-01-28T08:33:46.979Z,595
2017-01-28T08:34:57.807Z,610
2017-01-28T08:36:08.678Z,625
2017-01-28T08:37:19.773Z,635
2017-01-28T08:38:31.987Z,635
2017-01-28T08:39:43.671Z,645
2017-01-28T08:40:54.538Z,680
2017-01-28T08:42:05.345Z,685
2017-01-28T08:43:16.885Z,695
2017-01-28T08:44:27.735Z,710
2017-01-28T08:45:39.960Z,720
2017-01-28T08:46:50.755Z,735
2017-01-28T08:48:01.560Z,745
2017-01-28T08:49:13.060Z,750
2017-01-28T08:50:27.117Z,775
2017-01-28T08:51:40.683Z,805
2017-01-28T08:52:51.616Z,815
2017-01-28T08:54:04.748Z,835
2017-01-28T08:55:16.020Z,845
2017-01-28T08:56:26.842Z,855
2017-01-28T09:03:05.248Z,940
2017-01-28T09:04:16.301Z,975
2017-01-28T09:05:26.789Z,970
2017-01-28T09:06:37.772Z,935
2017-01-28T09:07:47.421Z,950
2017-01-28T09:08:57.907Z,980
2017-01-28T09:10:08.472Z,1000
2017-01-28T09:11:19.451Z,1005
2017-01-28T09:12:29.557Z,1075
2017-01-28T09:13:40.154Z,1090
2017-01-28T09:14:51.453Z,1085
2017-01-28T09:16:01.991Z,1145
2017-01-28T09:17:12.995Z,1135
2017-01-28T09:18:23.554Z,1070
2017-01-28T09:19:34.643Z,1050
2017-01-28T09:20:45.461Z,1025
2017-01-28T09:21:55.529Z,1055
2017-01-28T09:23:06.077Z,1085
2017-01-28T09:24:17.047Z,1155
2017-01-28T09:25:28.006Z,1230
2017-01-28T09:26:38.872Z,1215
2017-01-28T09:27:49.985Z,1185
2017-01-28T09:29:00.564Z,1100
2017-01-28T09:30:11.567Z,1130
2017-01-28T09:31:22.118Z,1190
2017-01-28T09:32:33.328Z,1185
2017-01-28T09:33:43.473Z,1185
2017-01-28T09:34:54.513Z,1110
2017-01-28T09:36:05.190Z,1185
2017-01-28T09:37:16.125Z,1225
2017-01-28T09:38:27.521Z,1270
2017-01-28T09:39:38.041Z,1305
2017-01-28T09:40:49.027Z,1230
2017-01-28T09:41:59.573Z,1250
2017-01-28T09:43:10.144Z,1250
2017-01-28T09:44:21.520Z,1245
2017-01-28T09:45:32.081Z,1265
2017-01-28T09:46:42.677Z,1315
2017-01-28T09:47:53.765Z,1290
2017-01-28T09:49:04.312Z,1310
2017-01-28T09:50:15.502Z,1450
2017-01-28T09:50:45.617Z,1445
2017-01-28T09:51:55.899Z,1455
2017-01-28T09:53:07.016Z,1410
2017-01-28T09:54:17.619Z,1375
2017-01-28T09:55:28.388Z,1370
2017-01-28T09:56:38.988Z,1370
2017-01-28T09:57:49.643Z,1355
2017-01-28T09:59:00.645Z,1415
2017-01-28T10:00:11.700Z,1495
2017-01-28T10:01:22.532Z,1450
2017-01-28T10:02:33.319Z,1435
2017-01-28T10:03:43.927Z,1485
2017-01-28T10:04:54.419Z,1410
2017-01-28T10:06:05.443Z,1380
2017-01-28T10:07:16.742Z,1395
2017-01-28T10:08:27.024Z,1510
2017-01-28T10:09:38.018Z,1620
2017-01-28T10:10:49.037Z,1590
2017-01-28T10:12:00.050Z,1505
2017-01-28T10:13:10.976Z,1530
2017-01-28T10:14:21.622Z,1540
2017-01-28T10:15:32.309Z,1595
2017-01-28T10:16:42.553Z,1600
2017-01-28T10:17:53.164Z,1585
2017-01-28T10:19:04.584Z,1645
2017-01-28T10:20:14.866Z,1755
2017-01-28T10:21:24.900Z,1735
2017-01-28T10:22:35.230Z,1660
2017-01-28T10:23:45.101Z,1550
2017-01-28T10:24:55.652Z,1505
2017-01-28T10:26:05.519Z,1655
2017-01-28T10:27:15.868Z,1815
2017-01-28T10:28:25.766Z,1705
2017-01-28T10:29:36.200Z,1690
2017-01-28T10:30:46.320Z,1680
2017-01-28T10:31:56.749Z,1685
2017-01-28T10:33:06.248Z,1820
2017-01-28T10:34:16.564Z,1725
2017-01-28T10:35:26.454Z,1660
2017-01-28T10:36:36.268Z,1580
2017-01-28T10:37:46.144Z,1595
2017-01-28T10:38:56.443Z,1640
2017-01-28T10:40:06.780Z,1730
2017-01-28T10:41:17.088Z,1780
2017-01-28T10:42:27.733Z,1740
2017-01-28T10:43:38.025Z,1770
2017-01-28T10:44:48.002Z,1940
2017-01-28T10:45:58.281Z,1985
2017-01-28T10:47:08.636Z,1875
2017-01-28T10:48:19.162Z,1845
2017-01-28T10:49:29.465Z,1925
2017-01-28T10:50:39.771Z,1900
2017-01-28T10:51:49.637Z,1930
2017-01-28T10:52:59.927Z,1835
2017-01-28T10:54:10.129Z,1820
2017-01-28T10:55:20.034Z,1795
2017-01-28T10:56:30.336Z,1835
2017-01-28T10:57:40.723Z,2030
2017-01-28T10:58:51.019Z,2390
2017-01-28T11:00:01.566Z,2240
2017-01-28T11:01:11.894Z,1885
2017-01-28T11:02:22.233Z,1785
2017-01-28T11:03:32.540Z,1775
2017-01-28T11:04:42.467Z,1860
2017-01-28T11:05:53.026Z,1955
2017-01-28T11:07:02.944Z,2030
2017-01-28T11:08:13.262Z,1940
2017-01-28T11:09:23.552Z,1825
2017-01-28T11:10:33.865Z,1795
2017-01-28T11:11:44.395Z,1900
2017-01-28T11:12:54.343Z,2015
2017-01-28T11:14:04.640Z,1925
2017-01-28T11:15:14.938Z,1915
2017-01-28T11:16:25.397Z,1995
2017-01-28T11:17:35.922Z,2120
2017-01-28T11:18:46.297Z,2175
2017-01-28T11:19:56.159Z,1975
2017-01-28T11:21:06.061Z,1845
2017-01-28T11:22:16.352Z,1910
2017-01-28T11:23:26.972Z,2175
2017-01-28T11:24:36.899Z,2285
2017-01-28T11:25:47.221Z,2150
2017-01-28T11:26:56.703Z,1955
2017-01-28T11:28:07.033Z,1810
2017-01-28T11:29:17.567Z,1815
2017-01-28T11:30:27.453Z,1810
2017-01-28T11:31:37.379Z,1765
2017-01-28T11:32:47.690Z,1760
2017-01-28T11:33:58.063Z,1805
2017-01-28T11:35:08.033Z,1830
2017-01-28T11:36:18.321Z,1855
2017-01-28T11:37:28.486Z,1840
2017-01-28T11:38:38.784Z,1835
2017-01-28T11:39:48.751Z,1795
2017-01-28T11:40:58.943Z,1735
2017-01-28T11:42:09.290Z,1745
2017-01-28T11:43:19.627Z,1670
2017-01-28T11:44:29.508Z,1755
2017-01-28T11:45:39.433Z,1835
2017-01-28T11:46:49.599Z,1870
2017-01-28T11:47:59.897Z,1855
2017-01-28T11:49:10.223Z,1875
2017-01-28T11:50:20.558Z,1875
2017-01-28T11:51:30.466Z,1845
2017-01-28T11:52:40.988Z,1840
2017-01-28T11:53:50.909Z,1885
2017-01-28T11:55:01.211Z,1880
2017-01-28T11:56:11.100Z,1865
2017-01-28T11:57:20.989Z,1870
2017-01-28T11:58:31.567Z,1755
2017-01-28T11:59:41.841Z,1500
2017-01-28T12:00:52.182Z,1440
2017-01-28T12:02:02.502Z,1625
2017-01-28T12:03:12.464Z,1660
2017-01-28T12:04:22.703Z,1485
2017-01-28T12:05:32.975Z,1405
2017-01-28T12:06:43.263Z,1255
2017-01-28T12:07:53.570Z,1315
2017-01-28T12:09:03.845Z,1460
2017-01-28T12:10:14.084Z,1700
2017-01-28T12:11:24.552Z,1720
2017-01-28T12:12:34.449Z,1605
2017-01-28T12:13:44.762Z,1625
2017-01-28T12:14:55.141Z,1640
2017-01-28T12:16:05.651Z,1630
2017-01-28T12:17:15.973Z,1655
2017-01-28T12:18:26.280Z,1695
2017-01-28T12:19:36.195Z,1820
2017-01-28T12:20:46.113Z,2015
2017-01-28T12:21:56.704Z,2025
2017-01-28T12:23:06.979Z,1890
2017-01-28T12:24:17.310Z,1850
2017-01-28T12:25:27.660Z,1855
2017-01-28T12:26:37.566Z,1920
2017-01-28T12:27:48.118Z,1905
2017-01-28T12:28:58.472Z,1765
2017-01-28T12:30:08.795Z,1690
2017-01-28T12:31:18.680Z,1800
2017-01-28T12:32:28.660Z,1970
2017-01-28T12:33:38.826Z,2020
2017-01-28T12:34:49.275Z,1800
2017-01-28T12:35:59.618Z,1685
2017-01-28T12:37:10.253Z,1750
2017-01-28T12:38:20.143Z,1770
2017-01-28T12:39:30.042Z,1680
2017-01-28T12:40:40.324Z,1615
2017-01-28T12:41:50.689Z,1665
2017-01-28T12:43:02.886Z,1650
2017-01-28T12:44:12.818Z,1635
2017-01-28T12:45:22.701Z,1715
2017-01-28T12:46:33.006Z,1690
2017-01-28T12:47:42.925Z,1550
2017-01-28T12:48:53.513Z,1350
2017-01-28T12:50:03.797Z,875
2017-01-28T12:51:13.720Z,735
2017-01-28T12:52:23.196Z,685
2017-01-28T12:53:33.168Z,675
2017-01-28T12:54:43.762Z,660
2017-01-28T12:55:54.125Z,670
2017-01-28T12:57:04.410Z,785
2017-01-28T12:58:14.315Z,1220
2017-01-28T12:59:24.665Z,1560
2017-01-28T13:00:35.321Z,1750
2017-01-28T13:01:45.242Z,1770
2017-01-28T13:02:55.168Z,1605
2017-01-28T13:04:05.546Z,1515
2017-01-28T13:05:15.483Z,1680
2017-01-28T13:06:25.791Z,1675
2017-01-28T13:07:35.315Z,1440
2017-01-28T13:08:45.248Z,1480
2017-01-28T13:09:55.794Z,1580
2017-01-28T13:11:05.722Z,1490
2017-01-28T13:12:16.281Z,1250
2017-01-28T13:13:26.214Z,1085
2017-01-28T13:14:36.123Z,980
2017-01-28T13:15:46.018Z,865
2017-01-28T13:16:55.923Z,760
2017-01-28T13:18:05.698Z,680
2017-01-28T13:19:16.059Z,630
2017-01-28T13:20:25.538Z,610
2017-01-28T13:21:35.476Z,600
2017-01-28T13:22:45.548Z,575
2017-01-28T13:23:56.122Z,560
2017-01-28T13:25:06.454Z,555
2017-01-28T13:26:16.736Z,540
2017-01-28T13:27:27.252Z,540
2017-01-28T13:28:37.580Z,540
2017-01-28T13:29:48.231Z,540
2017-01-28T13:30:58.332Z,535
2017-01-28T13:32:08.313Z,525
2017-01-28T13:33:18.719Z,525
2017-01-28T13:34:29.017Z,520
2017-01-28T13:35:39.324Z,515
2017-01-28T13:36:49.222Z,510
2017-01-28T13:37:59.546Z,505
2017-01-28T13:39:09.520Z,505
2017-01-28T13:40:19.508Z,500
2017-01-28T13:41:29.723Z,500
2017-01-28T13:42:40.023Z,495
2017-01-28T13:43:50.306Z,490
2017-01-28T13:45:00.600Z,485
2017-01-28T13:46:10.892Z,480
2017-01-28T13:47:21.149Z,470
2017-01-28T13:48:31.478Z,465
2017-01-28T13:49:41.380Z,460
2017-01-28T13:50:51.830Z,450
2017-01-28T13:52:02.147Z,450
2017-01-28T13:53:12.704Z,445
2017-01-28T13:54:22.611Z,435
2017-01-28T13:55:32.518Z,430
2017-01-28T13:56:42.560Z,430
2017-01-28T13:57:52.518Z,425
2017-01-28T13:59:03.047Z,420
2017-01-28T14:00:13.353Z,415
2017-01-28T14:01:23.254Z,410
2017-01-28T14:02:33.122Z,405
2017-01-28T14:03:43.471Z,400
2017-01-28T14:04:54.061Z,395
2017-01-28T14:06:04.501Z,390
2017-01-28T14:07:14.826Z,385
2017-01-28T14:08:24.704Z,380
2017-01-28T14:09:34.702Z,375
2017-01-28T14:10:45.318Z,370
2017-01-28T14:11:55.627Z,370
2017-01-28T14:13:06.207Z,365
2017-01-28T14:14:16.097Z,360
2017-01-28T14:15:26.459Z,360
2017-01-28T14:16:37.076Z,355
2017-01-28T14:17:47.423Z,345
2017-01-28T14:18:57.747Z,340
2017-01-28T14:20:08.084Z,335
2017-01-28T14:21:18.440Z,330
2017-01-28T14:22:29.128Z,325
2017-01-28T14:23:39.453Z,320
2017-01-28T14:24:49.890Z,315
2017-01-28T14:26:07.280Z,310
2017-01-28T14:27:22.881Z,305
2017-01-28T14:28:34.628Z,300
2017-01-28T14:29:46.358Z,290
2017-01-28T14:30:58.121Z,285
2017-01-28T14:32:10.693Z,280
2017-01-28T14:33:21.563Z,275
2017-01-28T14:34:31.913Z,275
2017-01-28T14:35:41.952Z,270
2017-01-28T14:36:52.475Z,270
2017-01-28T14:38:02.771Z,265
2017-01-28T14:39:13.352Z,260
2017-01-28T14:40:23.260Z,250
2017-01-28T14:41:33.171Z,245
2017-01-28T14:42:43.147Z,245
2017-01-28T14:43:53.494Z,240
2017-01-28T14:45:04.162Z,240
2017-01-28T14:46:14.503Z,235
2017-01-28T14:47:24.851Z,230
2017-01-28T14:48:34.755Z,225
2017-01-28T14:49:45.060Z,220
2017-01-28T14:50:55.310Z,215
2017-01-28T14:52:05.615Z,215
2017-01-28T14:53:16.158Z,210
2017-01-28T14:54:26.070Z,210
2017-01-28T14:55:36.359Z,205
2017-01-28T14:56:46.493Z,200
2017-01-28T14:57:56.805Z,190
2017-01-28T14:59:07.129Z,170
2017-01-28T15:00:17.438Z,165
2017-01-28T15:01:27.339Z,170
2017-01-28T15:02:37.938Z,165
2017-01-28T15:03:48.270Z,160
2017-01-28T15:04:58.693Z,160
2017-01-28T15:06:09.099Z,155
2017-01-28T15:07:19.435Z,150
2017-01-28T15:08:30.040Z,145
2017-01-28T15:09:39.933Z,140
2017-01-28T15:10:49.865Z,135
2017-01-28T15:12:00.194Z,125
2017-01-28T15:13:10.092Z,120
2017-01-28T15:14:20.773Z,115
2017-01-28T15:15:31.115Z,110
2017-01-28T15:16:41.428Z,105
2017-01-28T15:17:51.735Z,105
2017-01-28T15:19:02.128Z,100
2017-01-28T15:20:12.298Z,95
2017-01-28T15:21:22.655Z,90
2017-01-28T15:22:32.591Z,85
2017-01-28T15:23:42.898Z,80
2017-01-28T15:24:52.771Z,75
2017-01-28T15:26:03.394Z,75
2017-01-28T15:27:13.336Z,70
2017-01-28T15:28:23.232Z,65
2017-01-28T15:30:04.999Z,60
2017-01-28T15:31:15.507Z,60
2017-01-28T15:32:25.822Z,55
2017-01-28T15:33:36.103Z,55
2017-01-28T15:34:46.029Z,55
2017-01-28T15:35:56.334Z,50
2017-01-28T15:37:06.944Z,45
2017-01-28T15:38:17.010Z,45
2017-01-28T15:39:27.317Z,40
2017-01-28T15:40:37.619Z,40
2017-01-28T15:41:47.901Z,35
2017-01-28T15:42:58.042Z,35
2017-01-28T15:44:08.456Z,30
2017-01-28T15:45:19.078Z,30
2017-01-28T15:46:28.965Z,30
2017-01-28T15:47:39.260Z,25
2017-01-28T15:48:49.823Z,25
2017-01-28T15:50:00.205Z,20
2017-01-28T15:51:41.925Z,20
2017-01-28T15:52:52.220Z,15
2017-01-28T15:54:02.809Z,15
2017-01-28T15:55:13.108Z,15
2017-01-28T15:56:23.636Z,10
2017-01-28T15:57:33.192Z,10
2017-01-28T15:58:43.167Z,10
2017-01-28T15:59:53.731Z,10
2017-01-28T16:01:04.037Z,5
2017-01-28T16:02:14.379Z,5
2017-01-28T16:03:24.659Z,5
2017-01-28T16:04:34.118Z,5
2017-01-28T16:05:44.766Z,5
2017-01-28T16:06:55.064Z,5
2017-01-28T16:08:05.528Z,0
2017-01-28T16:09:15.391Z,0
2017-01-28T16:10:25.328Z,0
2017-01-28T16:11:35.582Z,0
2017-01-28T16:12:46.042Z,0
2017-01-28T16:13:56.361Z,0
2017-01-28T16:15:06.748Z,0
2017-01-28T16:16:17.058Z,0
2017-01-28T16:17:26.762Z,0
2017-01-28T16:18:37.120Z,0
2017-01-28T16:19:47.598Z,0
2017-01-28T16:20:57.949Z,0
2017-01-28T16:22:08.213Z,0
2017-01-28T16:23:18.400Z,0
2017-01-28T16:24:28.735Z,0
2017-01-28T16:25:39.036Z,0
2017-01-28T16:26:49.331Z,0
2017-01-28T16:27:59.231Z,0
2017-01-28T16:29:09.404Z,0
2017-01-28T16:30:19.296Z,0
2017-01-28T16:31:28.814Z,0
2017-01-28T16:32:38.374Z,0
2017-01-28T16:33:48.631Z,0
2017-01-28T16:34:59.207Z,0
2017-01-28T16:36:09.097Z,0
2017-01-28T16:37:19.380Z,0
2017-01-28T16:38:29.366Z,0